sensor_id;sensor_type;location;lat;lon;timestamp;P1;durP1;ratioP1;P2;durP2;ratioP2
1090;SDS011;534;48.704;9.122;2022-08-19T03:01:57;1.30;;;1.30;;
1090;SDS011;534;48.704;9.122;2022-08-19T03:04:24;1.50;;;1.50;;
1090;SDS011;534;48.704;9.122;2022-08-19T03:06:51;1.70;;;1.60;;
1090;SDS011;534;48.704;9.122;2022-08-19T03:09:18;2.20;;;2.10;;
1090;SDS011;534;48.704;9.122;2022-08-19T03:11:46;2.00;;;1.90;;
1090;SDS011;534;48.704;9.122;2022-08-19T03:14:12;1.90;;;1.80;;
1090;SDS011;534;48.704;9.122;2022-08-19T03:16:40;2.10;;;2.00;;
1090;SDS011;534;48.704;9.122;2022-08-19T03:19:10;2.20;;;2.10;;
1090;SDS011;534;48.704;9.122;2022-08-19T03:21:37;1.83;;;1.73;;
1090;SDS011;534;48.704;9.122;2022-08-19T03:24:05;1.60;;;1.50;;
1090;SDS011;534;48.704;9.122;2022-08-19T03:26:33;1.90;;;1.80;;
1090;SDS011;534;48.704;9.122;2022-08-19T03:29:01;2.17;;;2.07;;
1090;SDS011;534;48.704;9.122;2022-08-19T03:31:28;2.40;;;2.30;;
1090;SDS011;534;48.704;9.122;2022-08-19T03:33:56;2.30;;;2.20;;
1090;SDS011;534;48.704;9.122;2022-08-19T03:36:25;1.80;;;1.70;;
1090;SDS011;534;48.704;9.122;2022-08-19T03:38:54;2.10;;;2.00;;
1090;SDS011;534;48.704;9.122;2022-08-19T03:41:23;2.00;;;1.90;;
1090;SDS011;534;48.704;9.122;2022-08-19T03:43:51;1.90;;;1.80;;
1090;SDS011;534;48.704;9.122;2022-08-19T03:46:20;1.70;;;1.60;;
1090;SDS011;534;48.704;9.122;2022-08-19T03:48:50;2.00;;;1.90;;
1090;SDS011;534;48.704;9.122;2022-08-19T03:51:19;1.90;;;1.80;;
1090;SDS011;534;48.704;9.122;2022-08-19T03:53:49;2.00;;;1.90;;
1090;SDS011;534;48.704;9.122;2022-08-19T03:56:15;1.90;;;1.80;;
1090;SDS011;534;48.704;9.122;2022-08-19T03:58:42;1.90;;;1.80;;
1090;SDS011;534;48.704;9.122;2022-08-19T04:01:11;1.93;;;1.83;;
1090;SDS011;534;48.704;9.122;2022-08-19T04:03:40;1.97;;;1.87;;
1090;SDS011;534;48.704;9.122;2022-08-19T04:06:11;2.00;;;1.90;;
1090;SDS011;534;48.704;9.122;2022-08-19T04:08:39;2.17;;;2.07;;
1090;SDS011;534;48.704;9.122;2022-08-19T04:11:08;2.20;;;2.10;;
1090;SDS011;534;48.704;9.122;2022-08-19T04:13:36;2.10;;;2.00;;
1090;SDS011;534;48.704;9.122;2022-08-19T04:16:04;1.90;;;1.80;;
1090;SDS011;534;48.704;9.122;2022-08-19T04:18:31;2.00;;;1.90;;
1090;SDS011;534;48.704;9.122;2022-08-19T04:20:59;2.23;;;2.13;;
1090;SDS011;534;48.704;9.122;2022-08-19T04:23:26;2.10;;;2.00;;
1090;SDS011;534;48.704;9.122;2022-08-19T04:25:53;2.00;;;1.90;;
1090;SDS011;534;48.704;9.122;2022-08-19T04:28:22;2.33;;;2.23;;
1090;SDS011;534;48.704;9.122;2022-08-19T04:30:51;2.20;;;2.10;;
1090;SDS011;534;48.704;9.122;2022-08-19T04:33:19;2.07;;;1.97;;
1090;SDS011;534;48.704;9.122;2022-08-19T04:35:49;2.10;;;2.00;;
1090;SDS011;534;48.704;9.122;2022-08-19T04:38:18;2.67;;;2.57;;
1090;SDS011;534;48.704;9.122;2022-08-19T04:40:48;2.13;;;2.03;;
1090;SDS011;534;48.704;9.122;2022-08-19T04:43:35;2.47;;;2.37;;
1090;SDS011;534;48.704;9.122;2022-08-19T04:46:04;2.00;;;1.90;;
1090;SDS011;534;48.704;9.122;2022-08-19T04:48:31;2.33;;;2.23;;
1090;SDS011;534;48.704;9.122;2022-08-19T04:50:58;2.47;;;2.37;;
1090;SDS011;534;48.704;9.122;2022-08-19T04:53:25;2.83;;;2.73;;
1090;SDS011;534;48.704;9.122;2022-08-19T04:55:53;2.40;;;2.30;;
1090;SDS011;534;48.704;9.122;2022-08-19T04:58:21;2.10;;;2.00;;
1090;SDS011;534;48.704;9.122;2022-08-19T05:00:49;2.27;;;2.17;;
1090;SDS011;534;48.704;9.122;2022-08-19T05:03:16;2.20;;;2.10;;
1090;SDS011;534;48.704;9.122;2022-08-19T05:05:43;2.40;;;2.30;;
1090;SDS011;534;48.704;9.122;2022-08-19T05:08:14;2.63;;;2.53;;
1090;SDS011;534;48.704;9.122;2022-08-19T05:10:44;2.47;;;2.37;;
1090;SDS011;534;48.704;9.122;2022-08-19T05:13:12;1.90;;;1.80;;
1090;SDS011;534;48.704;9.122;2022-08-19T05:15:39;2.50;;;2.40;;
1090;SDS011;534;48.704;9.122;2022-08-19T05:18:07;2.20;;;2.10;;
1090;SDS011;534;48.704;9.122;2022-08-19T05:20:52;2.40;;;2.30;;
1090;SDS011;534;48.704;9.122;2022-08-19T05:23:36;2.13;;;2.03;;
1090;SDS011;534;48.704;9.122;2022-08-19T05:26:03;2.30;;;2.20;;
1090;SDS011;534;48.704;9.122;2022-08-19T05:28:30;1.97;;;1.87;;
1090;SDS011;534;48.704;9.122;2022-08-19T05:30:56;2.20;;;2.10;;
1090;SDS011;534;48.704;9.122;2022-08-19T05:33:24;2.10;;;2.00;;
1090;SDS011;534;48.704;9.122;2022-08-19T05:35:52;2.37;;;2.27;;
1090;SDS011;534;48.704;9.122;2022-08-19T05:38:19;2.10;;;2.00;;
1090;SDS011;534;48.704;9.122;2022-08-19T05:40:46;1.77;;;1.67;;
1090;SDS011;534;48.704;9.122;2022-08-19T05:43:14;2.10;;;2.00;;
1090;SDS011;534;48.704;9.122;2022-08-19T05:45:42;2.27;;;2.17;;
1090;SDS011;534;48.704;9.122;2022-08-19T05:48:09;2.47;;;2.37;;
1090;SDS011;534;48.704;9.122;2022-08-19T05:50:38;2.10;;;2.00;;
1090;SDS011;534;48.704;9.122;2022-08-19T05:53:06;2.20;;;2.10;;
1090;SDS011;534;48.704;9.122;2022-08-19T05:55:33;1.97;;;1.87;;
1090;SDS011;534;48.704;9.122;2022-08-19T05:58:03;2.10;;;2.00;;
1090;SDS011;534;48.704;9.122;2022-08-19T06:00:32;2.17;;;2.07;;
1090;SDS011;534;48.704;9.122;2022-08-19T06:02:59;2.40;;;2.30;;
1090;SDS011;534;48.704;9.122;2022-08-19T06:05:28;2.23;;;2.13;;
1090;SDS011;534;48.704;9.122;2022-08-19T06:07:56;2.10;;;2.00;;
1090;SDS011;534;48.704;9.122;2022-08-19T06:10:24;2.20;;;2.10;;
1090;SDS011;534;48.704;9.122;2022-08-19T06:12:51;2.70;;;2.60;;
1090;SDS011;534;48.704;9.122;2022-08-19T06:15:18;2.03;;;1.93;;
1090;SDS011;534;48.704;9.122;2022-08-19T06:17:51;2.40;;;2.30;;
1090;SDS011;534;48.704;9.122;2022-08-19T06:20:18;2.50;;;2.40;;
1090;SDS011;534;48.704;9.122;2022-08-19T06:22:46;2.60;;;2.50;;
1090;SDS011;534;48.704;9.122;2022-08-19T06:25:16;2.50;;;2.40;;
1090;SDS011;534;48.704;9.122;2022-08-19T06:27:43;2.40;;;2.30;;
1090;SDS011;534;48.704;9.122;2022-08-19T06:30:11;2.33;;;2.23;;
1090;SDS011;534;48.704;9.122;2022-08-19T06:32:38;2.43;;;2.33;;
1090;SDS011;534;48.704;9.122;2022-08-19T06:35:05;2.20;;;2.10;;
1090;SDS011;534;48.704;9.122;2022-08-19T06:37:32;2.23;;;2.13;;
1090;SDS011;534;48.704;9.122;2022-08-19T06:39:59;2.10;;;2.00;;
1090;SDS011;534;48.704;9.122;2022-08-19T06:42:27;2.47;;;2.37;;
1090;SDS011;534;48.704;9.122;2022-08-19T06:44:54;2.03;;;1.93;;
1090;SDS011;534;48.704;9.122;2022-08-19T06:47:21;2.10;;;2.00;;
1090;SDS011;534;48.704;9.122;2022-08-19T06:49:48;2.17;;;2.07;;
1090;SDS011;534;48.704;9.122;2022-08-19T06:52:15;1.93;;;1.83;;
1090;SDS011;534;48.704;9.122;2022-08-19T06:54:41;2.20;;;2.10;;
1090;SDS011;534;48.704;9.122;2022-08-19T06:57:08;2.03;;;1.93;;
1090;SDS011;534;48.704;9.122;2022-08-19T06:59:41;2.40;;;2.30;;
1090;SDS011;534;48.704;9.122;2022-08-19T07:02:08;2.20;;;2.10;;
1090;SDS011;534;48.704;9.122;2022-08-19T07:04:35;1.80;;;1.70;;
1090;SDS011;534;48.704;9.122;2022-08-19T07:07:04;2.20;;;2.10;;
1090;SDS011;534;48.704;9.122;2022-08-19T07:09:34;1.97;;;1.87;;
1090;SDS011;534;48.704;9.122;2022-08-19T07:12:03;2.10;;;2.00;;
1090;SDS011;534;48.704;9.122;2022-08-19T07:14:32;2.17;;;2.07;;
1090;SDS011;534;48.704;9.122;2022-08-19T07:17:04;2.17;;;2.07;;
1090;SDS011;534;48.704;9.122;2022-08-19T07:19:31;2.27;;;2.17;;
1090;SDS011;534;48.704;9.122;2022-08-19T07:22:00;2.40;;;2.30;;
1090;SDS011;534;48.704;9.122;2022-08-19T07:24:28;2.27;;;2.17;;
1090;SDS011;534;48.704;9.122;2022-08-19T07:26:56;2.30;;;2.20;;
1090;SDS011;534;48.704;9.122;2022-08-19T07:29:27;2.10;;;2.00;;
1090;SDS011;534;48.704;9.122;2022-08-19T07:31:55;2.20;;;2.10;;
1090;SDS011;534;48.704;9.122;2022-08-19T07:34:25;2.20;;;2.10;;
1090;SDS011;534;48.704;9.122;2022-08-19T07:36:53;1.93;;;1.83;;
1090;SDS011;534;48.704;9.122;2022-08-19T07:39:22;2.07;;;1.97;;
1090;SDS011;534;48.704;9.122;2022-08-19T07:41:50;1.73;;;1.63;;
1090;SDS011;534;48.704;9.122;2022-08-19T07:44:17;2.13;;;2.03;;
1090;SDS011;534;48.704;9.122;2022-08-19T07:46:49;2.17;;;2.07;;
1090;SDS011;534;48.704;9.122;2022-08-19T07:49:17;1.70;;;1.60;;
1090;SDS011;534;48.704;9.122;2022-08-19T07:51:46;2.00;;;1.90;;
1090;SDS011;534;48.704;9.122;2022-08-19T07:54:15;1.80;;;1.70;;
1090;SDS011;534;48.704;9.122;2022-08-19T07:56:42;2.03;;;1.93;;
1090;SDS011;534;48.704;9.122;2022-08-19T07:59:09;2.30;;;2.20;;
1090;SDS011;534;48.704;9.122;2022-08-19T08:01:36;1.90;;;1.80;;
1090;SDS011;534;48.704;9.122;2022-08-19T08:04:05;1.83;;;1.73;;
1090;SDS011;534;48.704;9.122;2022-08-19T08:06:51;2.13;;;2.03;;
1090;SDS011;534;48.704;9.122;2022-08-19T08:09:37;2.20;;;2.10;;
1090;SDS011;534;48.704;9.122;2022-08-19T08:12:06;2.00;;;1.90;;
1090;SDS011;534;48.704;9.122;2022-08-19T08:14:36;1.83;;;1.73;;
1090;SDS011;534;48.704;9.122;2022-08-19T08:17:05;1.70;;;1.60;;
1090;SDS011;534;48.704;9.122;2022-08-19T08:19:32;1.60;;;1.50;;
1090;SDS011;534;48.704;9.122;2022-08-19T08:22:00;2.10;;;2.00;;
1090;SDS011;534;48.704;9.122;2022-08-19T08:24:29;1.87;;;1.77;;
1090;SDS011;534;48.704;9.122;2022-08-19T08:26:57;1.87;;;1.77;;
1090;SDS011;534;48.704;9.122;2022-08-19T08:29:25;1.83;;;1.73;;
1090;SDS011;534;48.704;9.122;2022-08-19T08:31:52;1.80;;;1.70;;
1090;SDS011;534;48.704;9.122;2022-08-19T08:34:19;1.70;;;1.60;;
1090;SDS011;534;48.704;9.122;2022-08-19T08:36:46;2.03;;;1.93;;
1090;SDS011;534;48.704;9.122;2022-08-19T08:39:15;1.73;;;1.63;;
1090;SDS011;534;48.704;9.122;2022-08-19T08:41:44;1.63;;;1.53;;
1090;SDS011;534;48.704;9.122;2022-08-19T08:44:20;2.07;;;1.97;;
1090;SDS011;534;48.704;9.122;2022-08-19T08:46:50;1.90;;;1.80;;
1090;SDS011;534;48.704;9.122;2022-08-19T08:49:26;2.23;;;2.13;;
1090;SDS011;534;48.704;9.122;2022-08-19T08:51:59;1.90;;;1.80;;
1090;SDS011;534;48.704;9.122;2022-08-19T08:54:32;1.90;;;1.80;;
1090;SDS011;534;48.704;9.122;2022-08-19T08:57:02;1.80;;;1.70;;
1090;SDS011;534;48.704;9.122;2022-08-19T08:59:34;2.20;;;2.10;;
1090;SDS011;534;48.704;9.122;2022-08-19T09:02:03;1.80;;;1.70;;
1090;SDS011;534;48.704;9.122;2022-08-19T09:04:30;1.83;;;1.73;;
1090;SDS011;534;48.704;9.122;2022-08-19T09:07:00;1.97;;;1.87;;
1090;SDS011;534;48.704;9.122;2022-08-19T09:09:42;1.80;;;1.70;;
1090;SDS011;534;48.704;9.122;2022-08-19T09:12:13;1.93;;;1.83;;
1090;SDS011;534;48.704;9.122;2022-08-19T09:14:47;1.87;;;1.77;;
1090;SDS011;534;48.704;9.122;2022-08-19T09:17:17;1.93;;;1.83;;
1090;SDS011;534;48.704;9.122;2022-08-19T09:19:49;1.80;;;1.70;;
1090;SDS011;534;48.704;9.122;2022-08-19T09:22:18;1.80;;;1.70;;
1090;SDS011;534;48.704;9.122;2022-08-19T09:24:47;1.77;;;1.70;;
1090;SDS011;534;48.704;9.122;2022-08-19T09:27:15;1.90;;;1.80;;
1090;SDS011;534;48.704;9.122;2022-08-19T09:29:41;1.90;;;1.80;;
1090;SDS011;534;48.704;9.122;2022-08-19T09:32:08;1.87;;;1.77;;
1090;SDS011;534;48.704;9.122;2022-08-19T09:34:35;1.70;;;1.60;;
1090;SDS011;534;48.704;9.122;2022-08-19T09:37:02;1.70;;;1.60;;
1090;SDS011;534;48.704;9.122;2022-08-19T09:39:30;1.50;;;1.40;;
1090;SDS011;534;48.704;9.122;2022-08-19T09:41:58;1.97;;;1.87;;
1090;SDS011;534;48.704;9.122;2022-08-19T09:44:25;1.83;;;1.73;;
1090;SDS011;534;48.704;9.122;2022-08-19T09:46:51;1.87;;;1.77;;
1090;SDS011;534;48.704;9.122;2022-08-19T09:49:19;2.20;;;2.10;;
1090;SDS011;534;48.704;9.122;2022-08-19T09:51:48;1.70;;;1.60;;
1090;SDS011;534;48.704;9.122;2022-08-19T09:54:16;1.90;;;1.80;;
1090;SDS011;534;48.704;9.122;2022-08-19T09:56:43;1.70;;;1.60;;
1090;SDS011;534;48.704;9.122;2022-08-19T09:59:11;1.63;;;1.53;;
1090;SDS011;534;48.704;9.122;2022-08-19T10:01:38;1.70;;;1.60;;
1090;SDS011;534;48.704;9.122;2022-08-19T10:04:05;1.70;;;1.60;;
1090;SDS011;534;48.704;9.122;2022-08-19T10:06:33;1.63;;;1.53;;
1090;SDS011;534;48.704;9.122;2022-08-19T10:09:00;2.17;;;2.07;;
1090;SDS011;534;48.704;9.122;2022-08-19T10:11:29;2.00;;;1.90;;
1090;SDS011;534;48.704;9.122;2022-08-19T10:13:56;1.80;;;1.70;;
1090;SDS011;534;48.704;9.122;2022-08-19T10:16:24;1.57;;;1.47;;
1090;SDS011;534;48.704;9.122;2022-08-19T10:18:51;1.57;;;1.47;;
1090;SDS011;534;48.704;9.122;2022-08-19T10:21:21;1.53;;;1.43;;
1090;SDS011;534;48.704;9.122;2022-08-19T10:23:49;1.70;;;1.60;;
1090;SDS011;534;48.704;9.122;2022-08-19T10:26:18;1.60;;;1.50;;
1090;SDS011;534;48.704;9.122;2022-08-19T10:28:46;1.67;;;1.57;;
1090;SDS011;534;48.704;9.122;2022-08-19T10:31:16;1.57;;;1.47;;
1090;SDS011;534;48.704;9.122;2022-08-19T10:33:46;1.30;;;1.30;;
1090;SDS011;534;48.704;9.122;2022-08-19T10:36:14;1.60;;;1.50;;
1090;SDS011;534;48.704;9.122;2022-08-19T10:38:42;1.27;;;1.17;;
1090;SDS011;534;48.704;9.122;2022-08-19T10:41:11;1.80;;;1.70;;
1090;SDS011;534;48.704;9.122;2022-08-19T10:43:39;1.50;;;1.40;;
1090;SDS011;534;48.704;9.122;2022-08-19T10:46:07;1.67;;;1.57;;
1090;SDS011;534;48.704;9.122;2022-08-19T10:48:35;1.10;;;1.10;;
1090;SDS011;534;48.704;9.122;2022-08-19T10:51:04;1.40;;;1.30;;
1090;SDS011;534;48.704;9.122;2022-08-19T10:53:49;1.30;;;1.20;;
1090;SDS011;534;48.704;9.122;2022-08-19T10:56:16;1.40;;;1.30;;
1090;SDS011;534;48.704;9.122;2022-08-19T10:59:00;1.40;;;1.30;;
1090;SDS011;534;48.704;9.122;2022-08-19T11:01:28;1.10;;;1.10;;
1090;SDS011;534;48.704;9.122;2022-08-19T11:03:55;1.70;;;1.50;;
1090;SDS011;534;48.704;9.122;2022-08-19T11:06:24;1.40;;;1.30;;
1090;SDS011;534;48.704;9.122;2022-08-19T11:08:51;1.47;;;1.37;;
1090;SDS011;534;48.704;9.122;2022-08-19T11:11:18;2.30;;;1.70;;
1090;SDS011;534;48.704;9.122;2022-08-19T11:13:44;1.57;;;1.47;;
1090;SDS011;534;48.704;9.122;2022-08-19T11:16:14;1.57;;;1.47;;
1090;SDS011;534;48.704;9.122;2022-08-19T11:18:42;1.60;;;1.50;;
1090;SDS011;534;48.704;9.122;2022-08-19T11:21:12;1.50;;;1.40;;
1090;SDS011;534;48.704;9.122;2022-08-19T11:23:43;1.23;;;1.23;;
1090;SDS011;534;48.704;9.122;2022-08-19T11:26:11;1.00;;;1.00;;
1090;SDS011;534;48.704;9.122;2022-08-19T11:28:39;1.30;;;1.20;;
1090;SDS011;534;48.704;9.122;2022-08-19T11:31:09;1.40;;;1.30;;
1090;SDS011;534;48.704;9.122;2022-08-19T11:33:36;1.30;;;1.20;;
1090;SDS011;534;48.704;9.122;2022-08-19T11:36:03;1.30;;;1.20;;
1090;SDS011;534;48.704;9.122;2022-08-19T11:38:30;1.00;;;1.00;;
1090;SDS011;534;48.704;9.122;2022-08-19T11:40:59;1.30;;;1.20;;
1090;SDS011;534;48.704;9.122;2022-08-19T11:43:27;1.20;;;1.10;;
1090;SDS011;534;48.704;9.122;2022-08-19T11:45:54;1.20;;;1.10;;
1090;SDS011;534;48.704;9.122;2022-08-19T11:48:21;1.43;;;1.33;;
1090;SDS011;534;48.704;9.122;2022-08-19T11:50:49;1.03;;;1.03;;
1090;SDS011;534;48.704;9.122;2022-08-19T11:53:18;1.10;;;1.10;;
1090;SDS011;534;48.704;9.122;2022-08-19T11:55:45;1.20;;;1.10;;
1090;SDS011;534;48.704;9.122;2022-08-19T11:58:14;1.20;;;1.10;;
1090;SDS011;534;48.704;9.122;2022-08-19T12:00:42;1.20;;;1.10;;
1090;SDS011;534;48.704;9.122;2022-08-19T12:03:11;1.20;;;1.20;;
1090;SDS011;534;48.704;9.122;2022-08-19T12:05:38;0.97;;;0.97;;
1090;SDS011;534;48.704;9.122;2022-08-19T12:08:06;1.10;;;1.00;;
1090;SDS011;534;48.704;9.122;2022-08-19T12:10:33;1.27;;;1.23;;
1090;SDS011;534;48.704;9.122;2022-08-19T12:13:00;1.10;;;1.10;;
1090;SDS011;534;48.704;9.122;2022-08-19T12:15:28;1.10;;;1.00;;
1090;SDS011;534;48.704;9.122;2022-08-19T12:17:55;1.00;;;1.00;;
1090;SDS011;534;48.704;9.122;2022-08-19T12:20:23;1.13;;;1.03;;
1090;SDS011;534;48.704;9.122;2022-08-19T12:22:51;1.30;;;1.20;;
1090;SDS011;534;48.704;9.122;2022-08-19T12:25:18;1.20;;;1.10;;
1090;SDS011;534;48.704;9.122;2022-08-19T12:27:45;1.00;;;1.00;;
1090;SDS011;534;48.704;9.122;2022-08-19T12:30:13;1.20;;;1.10;;
1090;SDS011;534;48.704;9.122;2022-08-19T12:32:41;1.17;;;1.10;;
1090;SDS011;534;48.704;9.122;2022-08-19T12:35:08;1.40;;;1.30;;
1090;SDS011;534;48.704;9.122;2022-08-19T12:37:36;1.27;;;1.03;;
1090;SDS011;534;48.704;9.122;2022-08-19T12:40:03;1.30;;;1.20;;
1090;SDS011;534;48.704;9.122;2022-08-19T12:42:31;0.90;;;0.90;;
1090;SDS011;534;48.704;9.122;2022-08-19T12:44:57;1.00;;;1.00;;
1090;SDS011;534;48.704;9.122;2022-08-19T12:47:24;0.93;;;0.93;;
1090;SDS011;534;48.704;9.122;2022-08-19T12:49:53;1.60;;;1.50;;
1090;SDS011;534;48.704;9.122;2022-08-19T12:52:20;1.17;;;1.17;;
1090;SDS011;534;48.704;9.122;2022-08-19T12:54:47;1.50;;;1.40;;
1090;SDS011;534;48.704;9.122;2022-08-19T12:57:14;2.20;;;2.03;;
1090;SDS011;534;48.704;9.122;2022-08-19T12:59:41;1.80;;;1.70;;
1090;SDS011;534;48.704;9.122;2022-08-19T13:02:07;1.50;;;1.40;;
1090;SDS011;534;48.704;9.122;2022-08-19T13:04:34;1.57;;;1.47;;
1090;SDS011;534;48.704;9.122;2022-08-19T13:07:06;1.87;;;1.77;;
1090;SDS011;534;48.704;9.122;2022-08-19T13:09:34;1.87;;;1.77;;
1090;SDS011;534;48.704;9.122;2022-08-19T13:12:01;2.03;;;1.93;;
1090;SDS011;534;48.704;9.122;2022-08-19T13:14:28;1.97;;;1.87;;
1090;SDS011;534;48.704;9.122;2022-08-19T13:16:56;1.80;;;1.70;;
1090;SDS011;534;48.704;9.122;2022-08-19T13:19:23;1.80;;;1.70;;
1090;SDS011;534;48.704;9.122;2022-08-19T13:21:50;1.77;;;1.67;;
1090;SDS011;534;48.704;9.122;2022-08-19T13:24:18;2.10;;;2.00;;
1090;SDS011;534;48.704;9.122;2022-08-19T13:26:45;1.90;;;1.80;;
1090;SDS011;534;48.704;9.122;2022-08-19T13:29:12;1.73;;;1.63;;
1090;SDS011;534;48.704;9.122;2022-08-19T13:31:57;2.00;;;1.90;;
1090;SDS011;534;48.704;9.122;2022-08-19T13:34:41;1.80;;;1.70;;
1090;SDS011;534;48.704;9.122;2022-08-19T13:37:09;2.00;;;1.90;;
1090;SDS011;534;48.704;9.122;2022-08-19T13:39:37;2.00;;;1.90;;
1090;SDS011;534;48.704;9.122;2022-08-19T13:42:05;2.10;;;2.00;;
1090;SDS011;534;48.704;9.122;2022-08-19T13:44:34;2.13;;;2.03;;
1090;SDS011;534;48.704;9.122;2022-08-19T13:47:01;2.30;;;2.20;;
1090;SDS011;534;48.704;9.122;2022-08-19T13:49:32;2.07;;;1.97;;
1090;SDS011;534;48.704;9.122;2022-08-19T13:52:00;2.50;;;2.40;;
1090;SDS011;534;48.704;9.122;2022-08-19T13:54:28;1.87;;;1.77;;
1090;SDS011;534;48.704;9.122;2022-08-19T13:56:56;2.43;;;2.33;;
1090;SDS011;534;48.704;9.122;2022-08-19T13:59:22;2.10;;;2.00;;
1090;SDS011;534;48.704;9.122;2022-08-19T14:01:49;2.23;;;2.13;;
1090;SDS011;534;48.704;9.122;2022-08-19T14:04:16;2.10;;;2.00;;
1090;SDS011;534;48.704;9.122;2022-08-19T14:06:44;2.63;;;2.53;;
1090;SDS011;534;48.704;9.122;2022-08-19T14:09:10;2.20;;;2.10;;
1090;SDS011;534;48.704;9.122;2022-08-19T14:11:37;2.70;;;2.60;;
1090;SDS011;534;48.704;9.122;2022-08-19T14:14:05;2.30;;;2.20;;
1090;SDS011;534;48.704;9.122;2022-08-19T14:16:32;2.43;;;2.33;;
1090;SDS011;534;48.704;9.122;2022-08-19T14:18:58;2.40;;;2.30;;
1090;SDS011;534;48.704;9.122;2022-08-19T14:21:25;2.70;;;2.60;;
1090;SDS011;534;48.704;9.122;2022-08-19T14:23:52;2.27;;;2.17;;
1090;SDS011;534;48.704;9.122;2022-08-19T14:26:19;2.37;;;2.27;;
1090;SDS011;534;48.704;9.122;2022-08-19T14:28:47;2.60;;;2.50;;
1090;SDS011;534;48.704;9.122;2022-08-19T14:31:16;2.27;;;2.17;;
1090;SDS011;534;48.704;9.122;2022-08-19T14:33:44;2.20;;;2.10;;
1090;SDS011;534;48.704;9.122;2022-08-19T14:36:12;2.23;;;2.13;;
1090;SDS011;534;48.704;9.122;2022-08-19T14:38:38;2.00;;;1.90;;
1090;SDS011;534;48.704;9.122;2022-08-19T14:41:09;2.37;;;2.27;;
1090;SDS011;534;48.704;9.122;2022-08-19T14:43:38;2.43;;;2.33;;
1090;SDS011;534;48.704;9.122;2022-08-19T14:46:04;2.50;;;2.40;;
1090;SDS011;534;48.704;9.122;2022-08-19T14:48:33;2.20;;;2.10;;
1090;SDS011;534;48.704;9.122;2022-08-19T14:51:01;2.47;;;2.37;;
1090;SDS011;534;48.704;9.122;2022-08-19T14:53:27;2.00;;;1.90;;
1090;SDS011;534;48.704;9.122;2022-08-19T14:55:54;2.13;;;2.03;;
1090;SDS011;534;48.704;9.122;2022-08-19T14:58:21;2.30;;;2.20;;
1090;SDS011;534;48.704;9.122;2022-08-19T15:00:48;2.20;;;2.10;;
1090;SDS011;534;48.704;9.122;2022-08-19T15:03:15;2.20;;;2.10;;
1090;SDS011;534;48.704;9.122;2022-08-19T15:05:43;2.30;;;2.20;;
1090;SDS011;534;48.704;9.122;2022-08-19T15:08:09;2.00;;;1.90;;
1090;SDS011;534;48.704;9.122;2022-08-19T15:10:37;2.00;;;1.90;;
1090;SDS011;534;48.704;9.122;2022-08-19T15:13:13;2.33;;;2.23;;
1090;SDS011;534;48.704;9.122;2022-08-19T15:15:40;1.93;;;1.83;;
1090;SDS011;534;48.704;9.122;2022-08-19T15:18:07;2.07;;;1.97;;
1090;SDS011;534;48.704;9.122;2022-08-19T15:20:36;2.00;;;1.90;;
1090;SDS011;534;48.704;9.122;2022-08-19T15:23:05;1.77;;;1.67;;
1090;SDS011;534;48.704;9.122;2022-08-19T15:25:32;1.70;;;1.60;;
1090;SDS011;534;48.704;9.122;2022-08-19T15:27:59;2.13;;;2.03;;
1090;SDS011;534;48.704;9.122;2022-08-19T15:30:26;1.83;;;1.73;;
1090;SDS011;534;48.704;9.122;2022-08-19T15:32:54;2.10;;;2.00;;
1090;SDS011;534;48.704;9.122;2022-08-19T15:35:22;1.90;;;1.80;;
1090;SDS011;534;48.704;9.122;2022-08-19T15:37:49;2.00;;;1.90;;
1090;SDS011;534;48.704;9.122;2022-08-19T15:40:19;1.90;;;1.80;;
1090;SDS011;534;48.704;9.122;2022-08-19T15:42:47;2.30;;;2.20;;
1090;SDS011;534;48.704;9.122;2022-08-19T15:45:14;1.63;;;1.53;;
1090;SDS011;534;48.704;9.122;2022-08-19T15:47:43;1.90;;;1.80;;
1090;SDS011;534;48.704;9.122;2022-08-19T15:50:11;1.70;;;1.60;;
1090;SDS011;534;48.704;9.122;2022-08-19T15:52:43;1.63;;;1.57;;
1090;SDS011;534;48.704;9.122;2022-08-19T15:55:12;1.77;;;1.67;;
1090;SDS011;534;48.704;9.122;2022-08-19T15:57:40;2.03;;;1.93;;
1090;SDS011;534;48.704;9.122;2022-08-19T16:00:24;1.60;;;1.50;;
1090;SDS011;534;48.704;9.122;2022-08-19T16:03:09;1.70;;;1.60;;
1090;SDS011;534;48.704;9.122;2022-08-19T16:05:56;1.80;;;1.70;;
1090;SDS011;534;48.704;9.122;2022-08-19T16:08:46;1.40;;;1.40;;
1090;SDS011;534;48.704;9.122;2022-08-19T16:11:14;1.60;;;1.50;;
1090;SDS011;534;48.704;9.122;2022-08-19T16:13:46;1.30;;;1.30;;
1090;SDS011;534;48.704;9.122;2022-08-19T16:16:15;1.63;;;1.53;;
1090;SDS011;534;48.704;9.122;2022-08-19T16:18:42;1.60;;;1.50;;
1090;SDS011;534;48.704;9.122;2022-08-19T16:21:11;1.37;;;1.37;;
1090;SDS011;534;48.704;9.122;2022-08-19T16:23:38;1.50;;;1.40;;
1090;SDS011;534;48.704;9.122;2022-08-19T16:26:05;1.53;;;1.43;;
1090;SDS011;534;48.704;9.122;2022-08-19T16:28:32;1.30;;;1.30;;
1090;SDS011;534;48.704;9.122;2022-08-19T16:31:00;1.40;;;1.30;;
1090;SDS011;534;48.704;9.122;2022-08-19T16:33:27;1.50;;;1.40;;
1090;SDS011;534;48.704;9.122;2022-08-19T16:35:54;1.00;;;1.00;;
1090;SDS011;534;48.704;9.122;2022-08-19T16:38:20;1.23;;;1.13;;
1090;SDS011;534;48.704;9.122;2022-08-19T16:40:47;1.10;;;1.10;;
1090;SDS011;534;48.704;9.122;2022-08-19T16:43:18;1.27;;;1.27;;
1090;SDS011;534;48.704;9.122;2022-08-19T16:45:46;1.50;;;1.40;;
1090;SDS011;534;48.704;9.122;2022-08-19T16:48:18;1.70;;;1.60;;
1090;SDS011;534;48.704;9.122;2022-08-19T16:50:45;1.60;;;1.50;;
1090;SDS011;534;48.704;9.122;2022-08-19T16:53:12;1.50;;;1.50;;
1090;SDS011;534;48.704;9.122;2022-08-19T16:55:40;1.67;;;1.57;;
1090;SDS011;534;48.704;9.122;2022-08-19T16:58:08;1.60;;;1.50;;
1090;SDS011;534;48.704;9.122;2022-08-19T17:00:35;1.80;;;1.70;;
1090;SDS011;534;48.704;9.122;2022-08-19T17:03:04;1.33;;;1.33;;
1090;SDS011;534;48.704;9.122;2022-08-19T17:05:35;1.80;;;1.70;;
1090;SDS011;534;48.704;9.122;2022-08-19T17:08:06;1.90;;;1.80;;
1090;SDS011;534;48.704;9.122;2022-08-19T17:10:33;2.00;;;1.90;;
1090;SDS011;534;48.704;9.122;2022-08-19T17:13:02;1.80;;;1.70;;
1090;SDS011;534;48.704;9.122;2022-08-19T17:15:29;2.10;;;2.00;;
1090;SDS011;534;48.704;9.122;2022-08-19T17:17:58;1.80;;;1.70;;
1090;SDS011;534;48.704;9.122;2022-08-19T17:20:25;2.17;;;2.07;;
1090;SDS011;534;48.704;9.122;2022-08-19T17:22:53;1.90;;;1.80;;
1090;SDS011;534;48.704;9.122;2022-08-19T17:25:20;1.97;;;1.87;;
1090;SDS011;534;48.704;9.122;2022-08-19T17:27:47;1.80;;;1.70;;
1090;SDS011;534;48.704;9.122;2022-08-19T17:30:15;2.07;;;1.97;;
1090;SDS011;534;48.704;9.122;2022-08-19T17:32:42;2.20;;;2.10;;
1090;SDS011;534;48.704;9.122;2022-08-19T17:35:09;2.03;;;1.93;;
1090;SDS011;534;48.704;9.122;2022-08-19T17:37:36;1.90;;;1.80;;
1090;SDS011;534;48.704;9.122;2022-08-19T17:40:06;2.03;;;1.93;;
1090;SDS011;534;48.704;9.122;2022-08-19T17:42:34;1.90;;;1.80;;
1090;SDS011;534;48.704;9.122;2022-08-19T17:45:00;2.37;;;2.27;;
1090;SDS011;534;48.704;9.122;2022-08-19T17:47:27;2.30;;;2.20;;
1090;SDS011;534;48.704;9.122;2022-08-19T17:49:55;2.20;;;2.10;;
1090;SDS011;534;48.704;9.122;2022-08-19T17:52:22;1.80;;;1.70;;
1090;SDS011;534;48.704;9.122;2022-08-19T17:54:48;2.30;;;2.20;;
1090;SDS011;534;48.704;9.122;2022-08-19T17:57:17;2.20;;;2.10;;
1090;SDS011;534;48.704;9.122;2022-08-19T17:59:43;2.10;;;2.00;;
1090;SDS011;534;48.704;9.122;2022-08-19T18:02:10;2.60;;;2.50;;
1090;SDS011;534;48.704;9.122;2022-08-19T18:04:37;2.03;;;1.93;;
1090;SDS011;534;48.704;9.122;2022-08-19T18:07:04;2.20;;;2.10;;
1090;SDS011;534;48.704;9.122;2022-08-19T18:09:31;2.10;;;2.00;;
1090;SDS011;534;48.704;9.122;2022-08-19T18:12:00;2.10;;;2.00;;
1090;SDS011;534;48.704;9.122;2022-08-19T18:14:30;2.50;;;2.40;;
1090;SDS011;534;48.704;9.122;2022-08-19T18:16:58;2.30;;;2.20;;
1090;SDS011;534;48.704;9.122;2022-08-19T18:19:29;2.63;;;2.53;;
1090;SDS011;534;48.704;9.122;2022-08-19T18:21:56;2.20;;;2.10;;
1090;SDS011;534;48.704;9.122;2022-08-19T18:24:23;2.13;;;2.03;;
1090;SDS011;534;48.704;9.122;2022-08-19T18:26:49;2.07;;;1.97;;
1090;SDS011;534;48.704;9.122;2022-08-19T18:29:16;2.20;;;2.10;;
1090;SDS011;534;48.704;9.122;2022-08-19T18:31:44;2.90;;;2.60;;
1090;SDS011;534;48.704;9.122;2022-08-19T18:34:11;2.67;;;2.47;;
1090;SDS011;534;48.704;9.122;2022-08-19T18:36:39;2.50;;;2.30;;
1090;SDS011;534;48.704;9.122;2022-08-19T18:39:06;4.20;;;2.67;;